Time;durP1;ratioP1;P1;durP2;ratioP2;P2;SDS_P1;SDS_P2;PMS_P1;PMS_P2;Temp;Humidity;BMP_temperature;BMP_pressure;BME280_temperature;BME280_humidity;BME280_pressure;Samples;Min_cycle;Max_cycle;Signal;HPM_P1;HPM_P2
2022/09/22 00:00:29;;;;;;;7.57;4.67;;;;;;;19.99;42.75;102582.72;5024038;28;20124;-79
2022/09/22 00:02:56;;;;;;;8.13;4.43;;;;;;;19.94;42.96;102584.59;5023195;28;20033;-79
2022/09/22 00:05:22;;;;;;;8.43;4.53;;;;;;;19.90;42.96;102591.75;5033971;28;20100;-79
2022/09/22 00:07:48;;;;;;;8.60;4.57;;;;;;;20.02;42.80;102585.31;5028282;28;20056;-79
2022/09/22 00:10:14;;;;;;;11.47;4.50;;;;;;;20.05;42.33;102587.88;5027407;28;20025;-77
2022/09/22 00:12:39;;;;;;;10.13;4.30;;;;;;;19.95;42.46;102589.00;5033613;28;20166;-79
2022/09/22 00:15:05;;;;;;;8.60;3.97;;;;;;;19.80;43.22;102577.81;5027181;28;20026;-79
2022/09/22 00:17:31;;;;;;;11.23;4.90;;;;;;;19.67;43.20;102570.97;5017809;28;20056;-79
2022/09/22 00:19:56;;;;;;;9.03;4.43;;;;;;;19.81;43.04;102566.31;5012275;28;20065;-79
2022/09/22 00:22:22;;;;;;;6.00;3.70;;;;;;;19.83;42.71;102564.47;5014340;28;20079;-79
2022/09/22 00:24:47;;;;;;;6.77;4.10;;;;;;;19.86;43.01;102571.50;5020066;28;20508;-79
2022/09/22 00:27:12;;;;;;;8.13;3.90;;;;;;;19.78;43.42;102566.34;5042449;28;20119;-79
2022/09/22 00:29:38;;;;;;;9.07;4.07;;;;;;;19.53;43.62;102562.44;5030276;28;20025;-80
2022/09/22 00:32:03;;;;;;;6.10;3.80;;;;;;;19.69;43.88;102561.22;5038923;28;20032;-78
2022/09/22 00:34:29;;;;;;;8.73;4.10;;;;;;;19.63;43.38;102561.34;5020864;28;20036;-79
2022/09/22 00:36:55;;;;;;;9.30;4.37;;;;;;;19.50;44.00;102560.72;5030346;28;20017;-78
2022/09/22 00:39:20;;;;;;;8.17;3.97;;;;;;;19.60;43.42;102553.44;5024143;28;20030;-79
2022/09/22 00:41:49;;;;;;;5.47;3.70;;;;;;;19.70;43.08;102556.78;5018363;28;20528;-79
2022/09/22 00:44:37;;;;;;;5.80;3.60;;;;;;;19.86;42.84;102555.56;5018277;28;20057;-79
2022/09/22 00:47:49;;;;;;;9.60;4.27;;;;;;;19.73;42.85;102562.91;5012625;28;20029;-78
2022/09/22 00:50:22;;;;;;;10.50;4.30;;;;;;;19.82;42.97;102552.13;5011852;28;20038;-79
2022/09/22 00:52:47;;;;;;;7.90;3.90;;;;;;;19.61;43.21;102555.19;5013355;28;20025;-79
2022/09/22 00:55:19;;;;;;;7.13;4.17;;;;;;;19.70;43.27;102549.72;5029612;28;20136;-79
2022/09/22 00:57:46;;;;;;;8.30;3.87;;;;;;;19.83;42.64;102551.19;5029118;28;20025;-78
2022/09/22 01:00:13;;;;;;;5.17;3.47;;;;;;;19.82;42.10;102541.53;5012386;28;20021;-79
2022/09/22 01:02:39;;;;;;;7.80;3.83;;;;;;;19.90;42.24;102543.13;5017384;28;20401;-78
2022/09/22 01:05:05;;;;;;;8.60;4.17;;;;;;;19.60;43.01;102542.84;5022829;28;20031;-79
2022/09/22 01:07:31;;;;;;;8.77;3.47;;;;;;;19.57;42.35;102545.56;5029637;28;20026;-78
2022/09/22 01:09:57;;;;;;;7.73;3.73;;;;;;;19.77;42.45;102540.72;5010739;28;20022;-78
2022/09/22 01:12:24;;;;;;;6.50;3.60;;;;;;;19.86;41.77;102546.75;5050010;28;20097;-79
2022/09/22 01:15:11;;;;;;;4.80;3.70;;;;;;;19.72;42.45;102539.94;5029457;28;20036;-78
2022/09/22 01:17:46;;;;;;;8.50;4.07;;;;;;;19.64;42.53;102541.88;5020912;28;20504;-78
2022/09/22 01:20:22;;;;;;;6.67;4.03;;;;;;;19.49;43.18;102538.66;5020086;28;20029;-78
2022/09/22 01:23:00;;;;;;;8.83;4.00;;;;;;;19.63;42.57;102534.81;5024938;28;20398;-78
2022/09/22 01:25:31;;;;;;;7.33;3.80;;;;;;;19.53;42.66;102538.56;5053949;28;20029;-79
2022/09/22 01:28:13;;;;;;;9.30;4.10;;;;;;;19.37;43.05;102530.03;5017037;28;20045;-79
2022/09/22 01:30:52;;;;;;;8.97;3.73;;;;;;;19.45;43.27;102530.75;5051955;28;20117;-78
2022/09/22 01:33:55;;;;;;;4.97;3.33;;;;;;;19.55;42.62;102520.84;5021324;28;20496;-78
2022/09/22 01:36:50;;;;;;;8.20;3.75;;;;;;;19.48;42.90;102522.75;5028366;28;20029;-78
2022/09/22 01:39:15;;;;;;;11.00;3.80;;;;;;;19.43;43.18;102527.28;5016010;28;20109;-78
2022/09/22 01:42:02;;;;;;;7.87;3.67;;;;;;;19.26;43.75;102519.66;5012384;28;20108;-79
2022/09/22 01:44:46;;;;;;;7.20;3.80;;;;;;;19.31;43.38;102512.50;5027202;28;20046;-79
2022/09/22 01:47:18;;;;;;;6.77;3.93;;;;;;;19.25;43.36;102512.63;5022887;28;20022;-79
2022/09/22 01:49:50;;;;;;;3.97;3.55;;;;;;;19.39;42.92;102513.22;5053822;28;20452;-78
2022/09/22 01:52:20;;;;;;;4.53;3.50;;;;;;;19.35;42.97;102508.88;5016061;28;20035;-79
2022/09/22 01:55:10;;;;;;;7.27;4.50;;;;;;;19.42;43.10;102509.63;5032646;28;20033;-79
2022/09/22 01:57:59;;;;;;;6.23;4.27;;;;;;;19.49;42.57;102501.53;5043543;28;20037;-79
2022/09/22 02:00:25;;;;;;;9.73;4.63;;;;;;;19.76;41.79;102496.50;5023140;28;20029;-79
2022/09/22 02:02:59;;;;;;;8.10;4.53;;;;;;;19.55;42.61;102494.31;5014684;28;20486;-79
2022/09/22 02:05:37;;;;;;;6.13;4.37;;;;;;;19.46;42.93;102496.25;5021164;28;20018;-79
2022/09/22 02:08:12;;;;;;;10.63;4.30;;;;;;;19.52;42.94;102489.09;5023812;28;20022;-82
2022/09/22 02:10:43;;;;;;;6.73;4.07;;;;;;;19.63;42.49;102485.31;5023204;28;20559;-79
2022/09/22 02:13:08;;;;;;;11.53;4.73;;;;;;;19.31;43.23;102485.97;5017484;28;20164;-79
2022/09/22 02:18:26;;;;;;;5.93;4.43;;;;;;;19.45;42.79;102473.31;5028198;28;20036;-79
2022/09/22 02:20:52;;;;;;;6.87;4.60;;;;;;;19.35;43.39;102477.06;5021386;28;20440;-79
2022/09/22 02:23:18;;;;;;;4.63;3.87;;;;;;;19.24;43.08;102473.75;5019508;28;20029;-79
2022/09/22 02:25:45;;;;;;;6.33;3.93;;;;;;;19.18;43.74;102485.38;5030099;28;20408;-79
2022/09/22 02:28:15;;;;;;;9.83;4.80;;;;;;;19.08;43.40;102484.69;5025194;28;20033;-79
2022/09/22 02:30:43;;;;;;;8.47;5.03;;;;;;;19.42;42.72;102473.38;5026959;28;20029;-79
2022/09/22 02:33:10;;;;;;;5.33;4.40;;;;;;;19.22;43.39;102475.56;5029348;28;20044;-79
2022/09/22 02:35:38;;;;;;;8.57;4.63;;;;;;;19.19;43.28;102470.31;5013880;28;20029;-78
2022/09/22 02:38:13;;;;;;;6.77;4.53;;;;;;;19.07;43.68;102477.63;5022482;28;20032;-77
2022/09/22 02:41:00;;;;;;;8.27;4.60;;;;;;;19.30;43.06;102476.28;5033038;28;20063;-79
2022/09/22 02:43:36;;;;;;;9.27;5.00;;;;;;;19.19;43.50;102470.31;5043053;28;20041;-78
2022/09/22 02:46:12;;;;;;;7.37;5.17;;;;;;;19.37;42.76;102469.06;5033655;28;20040;-79
2022/09/22 02:48:45;;;;;;;7.20;5.37;;;;;;;19.08;43.56;102468.78;5026636;28;20033;-79
2022/09/22 02:51:13;;;;;;;10.47;5.20;;;;;;;18.97;43.40;102471.63;5016725;28;20036;-78
2022/09/22 02:53:39;;;;;;;12.27;5.47;;;;;;;18.94;43.76;102473.47;5058485;28;20025;-79
2022/09/22 02:56:05;;;;;;;8.43;4.70;;;;;;;19.10;43.33;102472.25;5016311;28;20120;-78
2022/09/22 02:58:30;;;;;;;7.87;4.70;;;;;;;19.09;43.32;102469.66;5024616;28;20029;-78
2022/09/22 03:00:56;;;;;;;11.67;4.70;;;;;;;19.14;42.87;102466.00;5019503;28;20053;-78
2022/09/22 03:03:21;;;;;;;7.97;4.80;;;;;;;19.12;42.83;102458.97;5027584;28;20079;-79
2022/09/22 03:05:46;;;;;;;9.10;5.37;;;;;;;18.85;43.89;102460.34;5027834;28;20511;-78
2022/09/22 03:08:12;;;;;;;10.47;5.13;;;;;;;19.18;42.62;102457.97;5026939;28;20025;-79
2022/09/22 03:10:37;;;;;;;10.10;4.93;;;;;;;18.96;43.25;102458.44;5060422;28;20556;-79
2022/09/22 03:13:03;;;;;;;14.97;5.60;;;;;;;18.89;43.33;102462.06;5025419;28;20030;-78
2022/09/22 03:15:28;;;;;;;9.77;4.57;;;;;;;19.00;42.95;102460.13;5035566;28;20547;-79
2022/09/22 03:17:54;;;;;;;6.87;4.90;;;;;;;18.94;43.21;102454.91;5034587;28;20021;-79
2022/09/22 03:20:19;;;;;;;8.37;4.87;;;;;;;18.88;43.77;102460.34;5025151;28;20136;-78
2022/09/22 03:22:44;;;;;;;9.13;4.97;;;;;;;18.60;44.45;102455.50;5026044;28;20048;-78
2022/09/22 03:25:10;;;;;;;6.33;4.90;;;;;;;18.92;43.31;102447.00;5056447;28;20032;-79
2022/09/22 03:27:37;;;;;;;11.23;5.60;;;;;;;18.71;43.76;102448.25;5034675;28;20498;-78
2022/09/22 03:30:04;;;;;;;12.83;5.10;;;;;;;18.79;43.70;102449.00;5036580;28;20026;-78
2022/09/22 03:32:30;;;;;;;8.47;5.43;;;;;;;18.57;44.51;102451.13;5017864;28;20111;-78
2022/09/22 03:34:55;;;;;;;13.10;5.73;;;;;;;18.75;43.93;102449.94;5018538;28;20160;-78
2022/09/22 03:37:21;;;;;;;11.63;6.03;;;;;;;18.71;44.08;102442.97;5038738;28;20504;-78
2022/09/22 03:39:46;;;;;;;9.27;5.37;;;;;;;18.57;43.80;102451.13;5023872;28;20487;-77
2022/09/22 03:42:12;;;;;;;15.60;6.30;;;;;;;18.80;43.53;102442.78;5019597;28;20030;-78
2022/09/22 03:44:37;;;;;;;6.97;5.33;;;;;;;18.72;44.03;102444.69;5019310;28;20056;-78
2022/09/22 03:47:03;;;;;;;7.47;5.17;;;;;;;18.78;43.89;102438.41;5017088;28;20599;-78
2022/09/22 03:49:28;;;;;;;8.10;5.57;;;;;;;18.72;43.55;102438.53;5031543;28;20040;-78
2022/09/22 03:51:54;;;;;;;9.47;5.73;;;;;;;18.92;43.01;102443.50;5030202;28;20037;-78
2022/09/22 03:54:23;;;;;;;10.33;6.30;;;;;;;18.87;43.36;102437.38;5015078;28;20080;-78
2022/09/22 03:56:49;;;;;;;10.80;5.17;;;;;;;18.73;43.43;102443.78;5025930;28;20482;-78
2022/09/22 03:59:14;;;;;;;10.67;5.43;;;;;;;18.54;44.18;102439.75;5024142;28;20457;-78
2022/09/22 04:01:40;;;;;;;10.80;6.50;;;;;;;18.67;44.08;102435.09;5020494;28;20029;-78
2022/09/22 04:04:06;;;;;;;12.60;6.37;;;;;;;18.86;43.01;102435.63;5012464;28;20037;-78
2022/09/22 04:06:32;;;;;;;9.10;6.07;;;;;;;18.45;44.32;102439.00;5022763;28;20040;-78
2022/09/22 04:08:58;;;;;;;9.77;6.37;;;;;;;18.65;43.35;102432.47;5020131;28;20026;-78
2022/09/22 04:11:23;;;;;;;9.13;6.43;;;;;;;18.39;44.01;102441.75;5024899;28;20096;-78
2022/09/22 04:13:50;;;;;;;14.73;6.67;;;;;;;18.41;44.05;102429.38;5020081;28;20022;-79
2022/09/22 04:16:16;;;;;;;9.97;6.20;;;;;;;18.54;43.71;102426.50;5020005;28;20112;-78
2022/09/22 04:18:41;;;;;;;13.73;6.60;;;;;;;18.57;43.67;102429.09;5016622;28;20025;-78
2022/09/22 04:21:07;;;;;;;12.03;6.97;;;;;;;18.52;44.17;102425.66;5052151;28;20075;-78
2022/09/22 04:23:33;;;;;;;9.53;6.17;;;;;;;18.51;44.15;102423.91;5014842;28;20029;-79
2022/09/22 04:25:58;;;;;;;13.47;7.47;;;;;;;18.31;44.79;102430.41;5034262;28;20041;-79
2022/09/22 04:28:24;;;;;;;10.53;7.07;;;;;;;18.43;44.20;102435.50;5020263;28;20014;-78
2022/09/22 04:30:49;;;;;;;12.73;6.37;;;;;;;18.45;44.24;102435.47;5028082;28;20077;-78
2022/09/22 04:33:15;;;;;;;10.17;7.03;;;;;;;18.39;44.10;102425.88;5012605;28;20021;-79
2022/09/22 04:35:41;;;;;;;9.80;6.53;;;;;;;18.53;43.63;102422.09;5023000;28;20408;-79
2022/09/22 04:38:06;;;;;;;11.10;7.07;;;;;;;18.58;44.23;102420.25;5057270;28;20021;-79
2022/09/22 04:40:32;;;;;;;12.13;6.77;;;;;;;18.20;44.43;102424.44;5023029;28;20029;-79
2022/09/22 04:42:58;;;;;;;15.63;7.53;;;;;;;18.44;44.10;102418.72;5016537;28;20076;-79
2022/09/22 04:45:23;;;;;;;17.83;8.10;;;;;;;18.16;44.78;102422.75;5020041;28;20053;-78
2022/09/22 04:47:51;;;;;;;10.90;7.20;;;;;;;18.21;44.87;102423.56;5016473;28;20018;-78
2022/09/22 04:50:19;;;;;;;12.30;8.03;;;;;;;18.31;44.12;102425.13;5040776;28;20489;-79
2022/09/22 04:52:53;;;;;;;11.07;7.47;;;;;;;18.35;44.15;102418.88;5019926;28;20065;-78
2022/09/22 04:55:20;;;;;;;10.80;7.37;;;;;;;18.42;43.94;102433.78;5044892;28;20037;-78
2022/09/22 04:57:53;;;;;;;13.40;7.73;;;;;;;18.19;44.64;102425.34;5011294;28;20018;-78
2022/09/22 05:00:21;;;;;;;15.13;8.63;;;;;;;18.23;44.17;102427.03;5015417;28;20022;-78
2022/09/22 05:02:46;;;;;;;17.30;8.37;;;;;;;18.21;44.35;102427.06;5032006;28;20108;-79
2022/09/22 05:05:12;;;;;;;14.70;8.53;;;;;;;18.17;44.13;102424.50;5017708;28;20121;-78
2022/09/22 05:07:55;;;;;;;11.13;8.10;;;;;;;18.02;44.67;102420.34;5024610;28;20102;-78
2022/09/22 05:10:26;;;;;;;16.00;8.83;;;;;;;18.23;44.20;102429.69;5028595;28;20029;-77
2022/09/22 05:12:54;;;;;;;13.17;9.10;;;;;;;18.25;43.93;102425.25;5020070;28;20534;-78
2022/09/22 05:15:21;;;;;;;12.83;9.07;;;;;;;18.24;44.15;102428.78;5014265;28;20022;-78
2022/09/22 05:17:50;;;;;;;15.10;9.33;;;;;;;18.29;43.64;102424.28;5053783;28;20486;-79
2022/09/22 05:20:17;;;;;;;14.90;9.10;;;;;;;18.10;44.35;102424.59;5027547;28;20091;-78
2022/09/22 05:22:43;;;;;;;12.87;9.47;;;;;;;18.02;44.49;102421.19;5025774;28;20025;-79
2022/09/22 05:25:10;;;;;;;12.70;9.37;;;;;;;18.02;44.57;102426.47;5046626;28;20052;-78
2022/09/22 05:27:41;;;;;;;18.37;10.10;;;;;;;18.11;44.33;102426.34;5032004;28;20028;-77
2022/09/22 05:30:07;;;;;;;14.10;9.70;;;;;;;18.01;44.31;102424.75;5030369;28;20033;-78
2022/09/22 05:32:32;;;;;;;16.00;9.83;;;;;;;17.95;44.65;102427.50;5049384;28;20030;-78
2022/09/22 05:34:57;;;;;;;16.70;10.30;;;;;;;18.11;44.16;102426.34;5027343;28;20473;-78
2022/09/22 05:37:23;;;;;;;14.57;9.70;;;;;;;18.08;44.22;102429.03;5030710;28;20501;-78
2022/09/22 05:39:48;;;;;;;15.90;10.87;;;;;;;17.85;45.07;102429.38;5033425;28;20053;-78
2022/09/22 05:42:13;;;;;;;17.20;9.97;;;;;;;17.85;44.82;102434.66;5027279;28;20460;-78
2022/09/22 05:44:39;;;;;;;16.50;9.93;;;;;;;17.82;45.10;102429.44;5035772;28;20401;-77
2022/09/22 05:47:04;;;;;;;18.53;10.90;;;;;;;17.75;44.96;102430.38;5014646;28;20473;-78
2022/09/22 05:49:30;;;;;;;16.03;10.37;;;;;;;17.95;44.55;102424.84;5034362;28;20036;-78
2022/09/22 05:51:56;;;;;;;13.63;10.60;;;;;;;17.96;44.84;102431.88;5023194;28;20029;-78
2022/09/22 05:54:22;;;;;;;19.73;11.43;;;;;;;17.80;44.97;102433.84;5022751;28;20021;-78
2022/09/22 05:56:48;;;;;;;16.97;11.47;;;;;;;17.77;45.49;102432.13;5031299;28;20022;-78
2022/09/22 05:59:13;;;;;;;19.90;12.23;;;;;;;18.06;44.57;102430.81;5032635;28;20036;-78
2022/09/22 06:01:39;;;;;;;18.60;11.87;;;;;;;17.93;44.81;102437.22;5036175;28;20507;-78
2022/09/22 06:04:04;;;;;;;15.87;11.50;;;;;;;18.02;45.02;102431.78;5028239;28;20021;-77
2022/09/22 06:06:29;;;;;;;17.00;11.97;;;;;;;18.02;45.09;102436.19;5032871;28;20075;-77
2022/09/22 06:08:55;;;;;;;19.30;13.53;;;;;;;18.23;44.63;102432.31;5042448;28;20025;-78
2022/09/22 06:11:20;;;;;;;15.83;12.33;;;;;;;18.13;44.69;102429.84;5030250;28;20535;-78
2022/09/22 06:13:49;;;;;;;17.97;13.03;;;;;;;18.19;44.85;102428.88;5050456;28;20051;-77
2022/09/22 06:16:15;;;;;;;17.77;13.30;;;;;;;18.22;44.81;102427.94;5020080;28;20036;-77
2022/09/22 06:18:44;;;;;;;22.50;13.00;;;;;;;18.14;45.29;102420.13;5044785;28;20029;-77
2022/09/22 06:21:20;;;;;;;24.07;14.37;;;;;;;18.27;44.74;102426.06;5015544;28;20026;-78
2022/09/22 06:23:46;;;;;;;22.33;13.83;;;;;;;18.21;45.36;102427.06;5028422;28;20548;-78
2022/09/22 06:26:11;;;;;;;24.43;14.53;;;;;;;18.26;45.37;102424.34;5037542;28;20113;-78
2022/09/22 06:28:36;;;;;;;23.80;16.13;;;;;;;18.59;44.36;102417.56;5042860;28;20026;-78
2022/09/22 06:31:02;;;;;;;22.07;15.60;;;;;;;18.48;44.88;102420.41;5034561;28;20539;-78
2022/09/22 06:33:28;;;;;;;22.80;15.77;;;;;;;18.37;45.11;102427.69;5028059;28;20554;-78
2022/09/22 06:35:53;;;;;;;25.27;15.77;;;;;;;18.48;45.35;102415.13;5033049;28;20553;-78
2022/09/22 06:38:20;;;;;;;23.13;17.00;;;;;;;18.58;44.61;102423.75;5030468;28;20083;-79
2022/09/22 06:40:45;;;;;;;27.53;17.33;;;;;;;18.42;45.56;102425.84;5031489;28;20022;-79
2022/09/22 06:43:21;;;;;;;21.80;16.03;;;;;;;18.87;44.67;102410.88;5028937;28;20387;-80
2022/09/22 06:45:49;;;;;;;22.87;16.70;;;;;;;19.08;44.12;102410.47;5032944;28;20025;-77
2022/09/22 06:48:15;;;;;;;25.13;16.47;;;;;;;19.09;44.27;102412.19;5029709;28;20096;-80
2022/09/22 06:50:47;;;;;;;24.97;17.00;;;;;;;18.98;44.39;102419.50;5024423;28;20111;-79
2022/09/22 06:53:12;;;;;;;27.47;17.67;;;;;;;19.11;44.17;102418.34;5026816;28;20029;-77
2022/09/22 06:55:41;;;;;;;29.20;18.93;;;;;;;18.98;44.78;102415.06;5035523;28;20036;-78
2022/09/22 06:58:07;;;;;;;29.33;20.83;;;;;;;18.90;44.62;102418.78;5025782;28;20497;-76
2022/09/22 07:00:33;;;;;;;28.10;19.23;;;;;;;19.17;44.06;102408.53;5032862;28;20060;-76
2022/09/22 07:03:07;;;;;;;24.63;19.43;;;;;;;19.20;44.59;102413.78;5035749;28;20017;-76
2022/09/22 07:05:34;;;;;;;30.97;21.90;;;;;;;19.55;43.72;102409.47;5017538;28;20029;-75
2022/09/22 07:08:00;;;;;;;29.17;20.73;;;;;;;19.65;43.41;102405.69;5049200;28;20029;-75
2022/09/22 07:10:26;;;;;;;30.80;19.70;;;;;;;19.31;43.82;102409.09;5029912;28;20021;-75
2022/09/22 07:12:53;;;;;;;28.23;20.30;;;;;;;19.46;44.34;102405.25;5031265;28;20021;-75
2022/09/22 07:15:18;;;;;;;21.13;16.97;;;;;;;19.74;43.25;102400.19;5031687;28;20072;-75
2022/09/22 07:17:44;;;;;;;27.27;18.80;;;;;;;19.89;43.69;102403.41;5033212;28;20053;-75
2022/09/22 07:20:09;;;;;;;29.37;20.80;;;;;;;19.79;43.09;102402.72;5025217;28;20021;-75
2022/09/22 07:22:38;;;;;;;27.83;21.07;;;;;;;19.67;44.14;102403.88;5025724;28;20524;-75
2022/09/22 07:25:07;;;;;;;31.33;22.00;;;;;;;19.86;43.58;102398.19;5035091;28;20482;-76
2022/09/22 07:27:33;;;;;;;28.37;20.70;;;;;;;20.06;42.85;102400.31;5053636;28;20017;-76
2022/09/22 07:29:58;;;;;;;35.93;21.57;;;;;;;20.28;42.55;102400.66;5033672;28;20542;-75
2022/09/22 07:32:25;;;;;;;33.07;21.90;;;;;;;20.22;42.62;102400.81;5023419;28;20032;-75
2022/09/22 07:34:51;;;;;;;34.63;20.93;;;;;;;20.32;42.74;102397.00;5030630;28;20385;-74
2022/09/22 07:37:17;;;;;;;30.73;21.20;;;;;;;20.62;41.82;102402.41;5032260;28;20032;-74
2022/09/22 07:39:44;;;;;;;27.50;20.63;;;;;;;20.57;42.57;102401.66;5023812;28;20022;-74
2022/09/22 07:42:10;;;;;;;34.37;21.87;;;;;;;21.43;41.98;102398.31;5024870;28;20025;-74
2022/09/22 07:48:34;;;;;;;22.50;18.33;;;;;;;24.03;38.12;102389.88;5022656;28;20575;-73
2022/09/22 07:50:05;;;;;;;24.23;17.40;;;;;;;25.18;34.94;102386.53;5014053;28;20172;-74
2022/09/22 07:52:32;;;;;;;26.00;16.08;;;;;;;25.47;33.04;102386.09;5013785;28;20679;-74
2022/09/22 07:54:57;;;;;;;16.58;13.65;;;;;;;25.47;33.67;102381.63;5017922;28;20466;-74
2022/09/22 07:57:23;;;;;;;19.67;14.73;;;;;;;25.13;34.30;102388.56;5028141;28;20044;-75
2022/09/22 07:59:48;;;;;;;17.83;14.13;;;;;;;24.73;33.98;102391.28;5019452;28;20025;-73
2022/09/22 08:02:14;;;;;;;18.20;14.38;;;;;;;24.51;35.41;102386.00;5015504;28;20040;-75
2022/09/22 08:04:40;;;;;;;19.85;15.63;;;;;;;24.10;36.39;102388.66;5018049;28;20027;-75
2022/09/22 08:07:06;;;;;;;26.02;16.20;;;;;;;24.18;36.32;102386.53;5021805;28;20029;-76
2022/09/22 08:09:32;;;;;;;21.75;15.95;;;;;;;23.72;36.81;102393.78;5030435;28;20033;-75
2022/09/22 08:11:58;;;;;;;20.55;16.73;;;;;;;22.91;38.42;102387.13;5031658;28;20064;-75
2022/09/22 08:14:24;;;;;;;26.05;17.75;;;;;;;23.43;38.04;102379.81;5020202;28;20052;-76
2022/09/22 08:16:52;;;;;;;18.48;16.08;;;;;;;23.87;37.68;102381.59;5031298;28;20109;-76
2022/09/22 08:19:17;;;;;;;23.52;17.58;;;;;;;22.94;38.43;102379.88;5011288;28;20022;-75
2022/09/22 08:21:46;;;;;;;21.65;16.15;;;;;;;23.82;37.11;102381.78;5030911;28;20091;-75
2022/09/22 08:24:13;;;;;;;22.70;17.45;;;;;;;24.09;37.00;102378.91;5018630;28;20022;-75
2022/09/22 08:26:42;;;;;;;21.25;17.40;;;;;;;23.79;37.63;102381.91;5025892;28;20029;-75
2022/09/22 08:29:08;;;;;;;25.77;19.00;;;;;;;23.58;37.45;102374.81;5021194;28;20068;-76
2022/09/22 08:31:35;;;;;;;26.13;18.35;;;;;;;24.22;36.86;102381.91;5018549;28;20026;-75
2022/09/22 08:34:05;;;;;;;22.35;16.77;;;;;;;24.11;36.85;102371.72;5050188;28;20600;-75
2022/09/22 08:36:31;;;;;;;23.25;16.73;;;;;;;23.05;37.05;102374.13;5027589;28;20029;-75
2022/09/22 08:39:01;;;;;;;20.35;16.13;;;;;;;23.87;36.72;102377.09;5053185;28;20065;-74
2022/09/22 08:41:26;;;;;;;25.42;17.23;;;;;;;23.93;36.65;102383.16;5027043;28;20052;-74
2022/09/22 08:43:55;;;;;;;21.55;16.80;;;;;;;23.99;37.05;102382.91;5028028;28;20049;-75
2022/09/22 08:46:27;;;;;;;28.15;17.23;;;;;;;24.68;35.83;102377.22;5016904;28;20033;-74
2022/09/22 08:51:54;;;;;;;21.98;16.42;;;;;;;24.04;36.13;102362.22;5027140;28;20044;-76
2022/09/22 08:54:25;;;;;;;22.15;15.55;;;;;;;24.34;35.92;102368.00;5028915;28;20382;-76
2022/09/22 08:56:57;;;;;;;22.45;15.98;;;;;;;24.61;35.49;102370.44;5017898;28;20064;-76
2022/09/22 08:59:31;;;;;;;22.80;16.55;;;;;;;24.09;36.52;102373.56;5027023;28;20025;-77
2022/09/22 09:02:14;;;;;;;25.88;16.85;;;;;;;24.24;36.00;102366.69;5036333;28;20084;-76
2022/09/22 09:04:41;;;;;;;21.23;15.93;;;;;;;24.04;35.51;102364.88;5019642;28;20478;-76
2022/09/22 09:07:30;;;;;;;21.95;15.55;;;;;;;23.88;36.74;102365.53;5057738;28;20026;-75
2022/09/22 09:10:20;;;;;;;20.52;14.05;;;;;;;24.79;35.03;102360.72;5032510;28;20060;-76
2022/09/22 09:12:52;;;;;;;21.88;14.40;;;;;;;24.83;34.79;102370.31;5026676;28;20116;-75
2022/09/22 09:15:29;;;;;;;22.23;14.35;;;;;;;24.83;34.60;102364.97;5019052;28;20048;-76
2022/09/22 09:17:59;;;;;;;23.02;14.88;;;;;;;25.13;34.49;102372.50;5022137;28;20052;-76
2022/09/22 09:20:31;;;;;;;21.33;13.10;;;;;;;25.28;34.28;102375.38;5024103;28;20492;-76
2022/09/22 09:22:58;;;;;;;20.63;12.45;;;;;;;25.64;33.17;102372.75;5026460;28;20061;-76
2022/09/22 09:25:42;;;;;;;17.38;12.50;;;;;;;25.55;33.50;102368.72;5022906;28;20033;-76
2022/09/22 09:28:34;;;;;;;21.63;11.85;;;;;;;25.17;34.14;102374.09;5023822;28;20518;-77
2022/09/22 09:31:16;;;;;;;18.90;12.27;;;;;;;24.56;35.06;102373.31;5013073;28;20041;-77
2022/09/22 09:33:45;;;;;;;15.27;11.68;;;;;;;25.53;34.00;102377.78;5031430;28;20120;-77
2022/09/22 09:36:15;;;;;;;17.27;12.35;;;;;;;25.85;33.39;102375.28;5026460;28;20061;-77
2022/09/22 09:38:50;;;;;;;19.38;11.40;;;;;;;24.72;35.06;102372.63;5022010;28;20034;-77
2022/09/22 09:41:20;;;;;;;15.05;10.95;;;;;;;25.24;33.92;102380.88;5019097;28;20474;-77
2022/09/22 09:43:47;;;;;;;18.58;10.57;;;;;;;25.43;32.88;102366.66;5020945;28;20056;-76
2022/09/22 09:46:34;;;;;;;15.30;8.98;;;;;;;24.77;33.62;102370.63;5028314;28;20025;-75
2022/09/22 09:49:25;;;;;;;9.98;8.45;;;;;;;25.76;31.90;102376.63;5026082;28;20866;-75
2022/09/22 09:51:57;;;;;;;11.18;7.72;;;;;;;24.67;33.59;102374.63;5021911;28;20107;-74
2022/09/22 09:54:23;;;;;;;13.98;7.82;;;;;;;25.35;32.52;102379.53;5018852;28;20459;-78
2022/09/22 09:57:05;;;;;;;12.88;8.77;;;;;;;25.61;32.57;102366.66;5031583;28;20029;-76
2022/09/22 10:02:35;;;;;;;12.65;9.32;;;;;;;26.88;31.07;102356.50;5017455;28;20080;-76
2022/09/22 10:05:06;;;;;;;13.88;8.55;;;;;;;26.02;32.01;102366.41;5015106;28;20504;-76
2022/09/22 10:07:44;;;;;;;12.48;8.98;;;;;;;25.94;31.66;102358.75;5032640;28;20516;-76
2022/09/22 10:10:28;;;;;;;16.05;9.15;;;;;;;26.62;31.38;102349.00;5026157;28;20124;-76
2022/09/22 10:13:02;;;;;;;10.73;8.00;;;;;;;26.40;30.57;102350.16;5035231;28;20041;-77
2022/09/22 10:15:28;;;;;;;13.50;8.73;;;;;;;25.40;32.28;102356.06;5019952;28;20200;-76
2022/09/22 10:17:54;;;;;;;13.43;8.70;;;;;;;26.12;31.63;102346.25;5023305;28;20115;-76
2022/09/22 10:20:19;;;;;;;16.67;8.63;;;;;;;27.06;30.31;102353.75;5017767;28;20033;-76
2022/09/22 10:22:44;;;;;;;11.85;8.40;;;;;;;26.92;30.94;102347.34;5029850;28;20041;-76
2022/09/22 10:25:32;;;;;;;14.77;7.85;;;;;;;27.12;30.64;102336.44;5029498;28;20548;-76
2022/09/22 10:28:02;;;;;;;12.50;8.18;;;;;;;25.99;32.01;102355.84;5016442;28;20052;-77
2022/09/22 10:30:31;;;;;;;10.73;7.90;;;;;;;26.03;31.94;102341.38;5037391;28;20108;-76
2022/09/22 10:33:09;;;;;;;12.25;7.00;;;;;;;25.96;30.97;102338.09;5034358;28;20517;-76
2022/09/22 10:35:35;;;;;;;9.23;7.28;;;;;;;25.63;31.78;102333.53;5040363;28;20038;-77
2022/09/22 10:38:14;;;;;;;13.05;8.13;;;;;;;27.09;30.62;102316.00;5014161;28;20087;-76
2022/09/22 10:40:43;;;;;;;11.10;7.68;;;;;;;26.90;30.35;102327.78;5022134;28;20030;-78
2022/09/22 10:43:28;;;;;;;11.90;7.85;;;;;;;26.66;30.68;102323.75;5027889;28;20132;-76
2022/09/22 10:46:16;;;;;;;15.77;7.85;;;;;;;26.72;30.60;102318.97;5029584;28;20037;-76
2022/09/22 10:49:24;;;;;;;11.23;7.07;;;;;;;26.77;30.58;102310.66;5033945;28;20030;-76
2022/09/22 10:52:14;;;;;;;8.73;7.15;;;;;;;25.57;32.51;102329.34;5037981;28;20494;-76
2022/09/22 10:55:01;;;;;;;12.27;8.43;;;;;;;26.86;30.83;102307.47;5043028;28;20033;-76
2022/09/22 10:57:50;;;;;;;11.40;7.55;;;;;;;27.76;30.46;102315.75;5014299;28;20045;-76
2022/09/22 11:00:32;;;;;;;9.90;6.20;;;;;;;27.46;29.06;102308.53;5032845;28;20405;-76
2022/09/22 11:03:01;;;;;;;7.90;5.82;;;;;;;27.95;28.63;102309.28;5021379;28;20030;-75
2022/09/22 11:14:21;;;;;;;7.10;4.55;;;;;;;27.58;29.69;102297.09;5018758;28;20075;-76
2022/09/22 11:17:01;;;;;;;5.80;3.40;;;;;;;25.95;30.05;102295.34;5020721;28;20026;-75
2022/09/22 11:20:04;;;;;;;7.10;3.90;;;;;;;27.85;28.31;102296.41;5013167;28;20149;-76
2022/09/22 11:23:08;;;;;;;12.53;4.17;;;;;;;27.09;28.75;102299.91;5024927;28;20025;-75
2022/09/22 11:25:56;;;;;;;6.32;3.25;;;;;;;27.04;28.28;102299.34;5004050;28;20315;-76
2022/09/22 11:29:19;;;;;;;6.47;3.22;;;;;;;27.82;28.06;102293.91;4981866;28;20042;-77
2022/09/22 11:32:00;;;;;;;9.30;2.72;;;;;;;27.90;27.50;102293.41;5000729;28;20048;-76
2022/09/22 11:35:22;;;;;;;4.30;2.22;;;;;;;27.79;27.34;102286.00;5020955;28;20030;-76
2022/09/22 11:38:08;;;;;;;4.70;2.25;;;;;;;28.06;26.97;102288.03;4991373;28;20113;-76
2022/09/22 11:40:55;;;;;;;5.72;2.40;;;;;;;26.35;28.17;102272.69;4995736;28;20038;-76
2022/09/22 11:43:39;;;;;;;6.18;3.20;;;;;;;27.47;28.11;102270.00;5020265;28;20052;-76
2022/09/22 11:46:13;;;;;;;6.15;2.45;;;;;;;27.99;26.47;102267.84;5039504;28;20029;-75
2022/09/22 11:49:04;;;;;;;7.88;2.42;;;;;;;28.13;25.84;102265.16;5047113;28;20037;-76
2022/09/22 11:51:59;;;;;;;6.13;2.45;;;;;;;28.52;24.87;102255.56;5020269;28;20068;-74
2022/09/22 11:54:37;;;;;;;5.50;2.80;;;;;;;28.80;24.92;102253.81;5022455;28;20025;-75